createdAt,value
2023-02-04T00:02:25.260Z,99.90
2023-02-04T00:04:52.047Z,99.90
2023-02-04T00:07:18.789Z,99.90
2023-02-04T00:09:50.087Z,99.90
2023-02-04T00:12:17.464Z,99.90
2023-02-04T00:14:44.275Z,99.90
2023-02-04T00:17:13.024Z,99.90
2023-02-04T00:19:40.595Z,99.90
2023-02-04T00:22:08.395Z,99.90
2023-02-04T00:24:36.079Z,99.90
2023-02-04T00:27:03.723Z,99.90
2023-02-04T00:29:30.620Z,99.90
2023-02-04T00:31:57.630Z,99.90
2023-02-04T00:34:24.453Z,99.90
2023-02-04T00:36:51.531Z,99.90
2023-02-04T00:39:18.307Z,99.90
2023-02-04T00:41:45.052Z,99.90
2023-02-04T00:44:14.016Z,99.90
2023-02-04T00:46:42.524Z,99.90
2023-02-04T00:49:13.207Z,99.90
2023-02-04T00:51:46.287Z,99.90
2023-02-04T00:54:14.590Z,99.90
2023-02-04T00:56:42.138Z,99.90
2023-02-04T00:59:09.007Z,99.90
2023-02-04T01:01:35.866Z,99.90
2023-02-04T01:04:02.684Z,99.90
2023-02-04T01:06:29.327Z,99.90
2023-02-04T01:08:56.093Z,99.90
2023-02-04T01:11:22.783Z,99.90
2023-02-04T01:13:49.577Z,99.90
2023-02-04T01:16:16.460Z,99.90
2023-02-04T01:18:43.132Z,99.90
2023-02-04T01:21:09.860Z,99.90
2023-02-04T01:23:36.837Z,99.90
2023-02-04T01:26:04.219Z,99.90
2023-02-04T01:28:31.057Z,99.90
2023-02-04T01:30:57.951Z,99.90
2023-02-04T01:33:24.642Z,99.90
2023-02-04T01:35:51.426Z,99.90
2023-02-04T01:38:18.094Z,99.90
2023-02-04T01:40:44.916Z,99.90
2023-02-04T01:43:12.432Z,99.90
2023-02-04T01:45:39.407Z,99.90
2023-02-04T01:48:07.467Z,99.90
2023-02-04T01:50:34.603Z,99.90
2023-02-04T01:53:01.842Z,99.90
2023-02-04T01:55:31.903Z,99.90
2023-02-04T01:57:59.060Z,99.90
2023-02-04T02:00:30.272Z,99.90
2023-02-04T02:02:58.737Z,99.90
2023-02-04T02:05:36.492Z,99.90
2023-02-04T02:08:04.778Z,99.90
2023-02-04T02:10:32.902Z,99.90
2023-02-04T02:13:00.038Z,99.90
2023-02-04T02:15:27.358Z,99.90
2023-02-04T02:17:54.706Z,99.90
2023-02-04T02:20:24.499Z,99.90
2023-02-04T02:23:20.984Z,99.90
2023-02-04T02:25:48.366Z,99.90
2023-02-04T02:28:20.976Z,99.90
2023-02-04T02:30:49.721Z,99.90
2023-02-04T02:33:19.404Z,99.90
2023-02-04T02:35:49.879Z,99.90
2023-02-04T02:38:18.211Z,99.90
2023-02-04T02:40:45.536Z,99.90
2023-02-04T02:43:21.293Z,99.90
2023-02-04T02:45:49.760Z,99.90
2023-02-04T02:48:17.593Z,99.90
2023-02-04T02:50:45.091Z,99.90
2023-02-04T02:53:17.791Z,99.90
2023-02-04T02:55:45.452Z,99.90
2023-02-04T02:58:34.961Z,99.90
2023-02-04T03:01:05.395Z,99.90
2023-02-04T03:03:35.858Z,99.90
2023-02-04T03:06:08.885Z,99.90
2023-02-04T03:08:36.602Z,99.90
2023-02-04T03:11:03.425Z,99.90
2023-02-04T03:13:30.300Z,99.90
2023-02-04T03:15:57.650Z,99.90
2023-02-04T03:18:24.430Z,99.90
2023-02-04T03:20:51.942Z,99.90
2023-02-04T03:23:20.210Z,99.90
2023-02-04T03:25:47.082Z,99.90
2023-02-04T03:28:13.993Z,99.90
2023-02-04T03:30:40.837Z,99.90
2023-02-04T03:33:07.634Z,99.90
2023-02-04T03:35:34.513Z,99.90
2023-02-04T03:38:01.161Z,99.90
2023-02-04T03:40:28.065Z,99.90
2023-02-04T03:42:54.841Z,99.90
2023-02-04T03:45:22.199Z,99.90
2023-02-04T03:47:48.902Z,99.90
2023-02-04T03:50:15.899Z,99.90
2023-02-04T03:52:42.531Z,99.90
2023-02-04T03:55:09.358Z,99.90
2023-02-04T03:57:36.008Z,99.90
2023-02-04T04:00:02.775Z,99.90
2023-02-04T04:02:29.451Z,99.90
2023-02-04T04:04:56.119Z,99.90
2023-02-04T04:07:22.856Z,99.90
2023-02-04T04:09:49.467Z,99.90
2023-02-04T04:12:16.274Z,99.90
2023-02-04T04:14:42.914Z,99.90
2023-02-04T04:17:09.648Z,99.90
2023-02-04T04:19:36.436Z,99.90
2023-02-04T04:22:03.130Z,99.90
2023-02-04T04:24:29.803Z,99.90
2023-02-04T04:26:56.717Z,99.90
2023-02-04T04:29:23.414Z,99.90
2023-02-04T04:31:50.097Z,99.90
2023-02-04T04:34:16.792Z,99.90
2023-02-04T04:36:43.482Z,99.90
2023-02-04T04:39:10.140Z,99.90
2023-02-04T04:41:36.882Z,99.90
2023-02-04T04:44:03.607Z,99.90
2023-02-04T04:46:30.564Z,99.90
2023-02-04T04:48:57.233Z,99.90
2023-02-04T04:51:23.951Z,99.90
2023-02-04T04:53:50.662Z,99.90
2023-02-04T04:56:19.056Z,99.90
2023-02-04T04:58:45.745Z,99.90
2023-02-04T05:01:12.529Z,99.90
2023-02-04T05:03:39.461Z,99.90
2023-02-04T05:06:06.225Z,99.90
2023-02-04T05:08:34.128Z,99.90
2023-02-04T05:11:00.779Z,99.90
2023-02-04T05:13:27.497Z,99.90
2023-02-04T05:15:54.130Z,99.90
2023-02-04T05:18:20.908Z,99.90
2023-02-04T05:20:47.597Z,99.90
2023-02-04T05:23:14.400Z,99.90
2023-02-04T05:25:41.124Z,99.90
2023-02-04T05:28:07.884Z,99.90
2023-02-04T05:30:35.036Z,99.90
2023-02-04T05:33:01.861Z,99.90
2023-02-04T05:35:29.018Z,99.90
2023-02-04T05:37:55.684Z,99.90
2023-02-04T05:40:22.863Z,99.90
2023-02-04T05:42:49.602Z,99.90
2023-02-04T05:45:16.710Z,99.90
2023-02-04T05:47:43.403Z,99.90
2023-02-04T05:50:10.945Z,99.90
2023-02-04T05:52:38.711Z,99.90
2023-02-04T05:55:05.764Z,99.90
2023-02-04T05:57:32.502Z,99.90
2023-02-04T05:59:59.172Z,99.90
2023-02-04T06:02:25.837Z,99.90
2023-02-04T06:04:52.518Z,99.90
2023-02-04T06:07:19.501Z,99.90
2023-02-04T06:09:46.143Z,99.90
2023-02-04T06:12:12.800Z,99.90
2023-02-04T06:14:39.500Z,99.90
2023-02-04T06:17:06.171Z,99.90
2023-02-04T06:19:32.996Z,99.90
2023-02-04T06:21:59.648Z,99.90
2023-02-04T06:24:26.453Z,99.90
2023-02-04T06:26:53.119Z,99.90
2023-02-04T06:29:19.773Z,99.90
2023-02-04T06:31:47.234Z,99.90
2023-02-04T06:34:14.038Z,99.90
2023-02-04T06:36:40.873Z,99.90
2023-02-04T06:39:07.617Z,99.90
2023-02-04T06:41:34.314Z,99.90
2023-02-04T06:44:01.145Z,99.90
2023-02-04T06:46:27.929Z,99.90
2023-02-04T06:48:54.685Z,99.90
2023-02-04T06:51:21.450Z,99.90
2023-02-04T06:53:48.234Z,99.90
2023-02-04T06:56:14.866Z,99.90
2023-02-04T06:58:41.635Z,99.90
2023-02-04T07:01:08.563Z,99.90
2023-02-04T07:03:35.381Z,99.90
2023-02-04T07:06:02.135Z,99.90
2023-02-04T07:08:28.890Z,99.90
2023-02-04T07:10:55.557Z,99.90
2023-02-04T07:13:22.295Z,99.90
2023-02-04T07:15:49.683Z,99.90
2023-02-04T07:18:16.385Z,99.90
2023-02-04T07:20:43.194Z,99.90
2023-02-04T07:23:09.844Z,99.90
2023-02-04T07:25:36.534Z,99.90
2023-02-04T07:28:05.650Z,99.90
2023-02-04T07:30:33.454Z,99.90
2023-02-04T07:33:00.509Z,99.90
2023-02-04T07:35:27.171Z,99.90
2023-02-04T07:37:53.782Z,99.90
2023-02-04T07:40:21.761Z,99.90
2023-02-04T07:42:48.417Z,99.90
2023-02-04T07:45:15.596Z,99.90
2023-02-04T07:47:42.341Z,99.90
2023-02-04T07:50:09.349Z,99.90
2023-02-04T07:52:36.032Z,99.90
2023-02-04T07:55:02.774Z,99.90
2023-02-04T07:57:30.106Z,99.90
2023-02-04T07:59:56.813Z,99.90
2023-02-04T08:02:23.631Z,99.90
2023-02-04T08:04:50.390Z,99.90
2023-02-04T08:07:17.212Z,99.90
2023-02-04T08:09:43.897Z,99.90
2023-02-04T08:12:10.562Z,99.90
2023-02-04T08:14:37.369Z,99.90
2023-02-04T08:17:04.079Z,99.90
2023-02-04T08:19:30.749Z,99.90
2023-02-04T08:21:57.439Z,99.90
2023-02-04T08:24:24.140Z,99.90
2023-02-04T08:26:51.810Z,99.90
2023-02-04T08:29:18.645Z,99.90
2023-02-04T08:31:46.554Z,99.90
2023-02-04T08:34:13.702Z,99.90
2023-02-04T08:36:40.627Z,99.90
2023-02-04T08:39:07.384Z,99.90
2023-02-04T08:41:33.989Z,99.90
2023-02-04T08:44:00.619Z,99.90
2023-02-04T08:46:27.562Z,99.90
2023-02-04T08:48:54.299Z,99.90
2023-02-04T08:51:20.971Z,99.90
2023-02-04T08:53:47.735Z,99.90
2023-02-04T08:56:20.289Z,99.90
2023-02-04T08:58:48.150Z,99.90
2023-02-04T09:01:15.311Z,99.90
2023-02-04T09:03:42.033Z,99.90
2023-02-04T09:06:08.992Z,99.90
2023-02-04T09:08:35.678Z,99.90
2023-02-04T09:11:02.670Z,99.90
2023-02-04T09:13:29.366Z,99.90
2023-02-04T09:15:56.220Z,99.90
2023-02-04T09:18:25.078Z,99.90
2023-02-04T09:20:53.079Z,99.90
2023-02-04T09:23:19.986Z,99.90
2023-02-04T09:25:46.854Z,99.90
2023-02-04T09:28:14.477Z,99.90
2023-02-04T09:30:42.485Z,99.90
2023-02-04T09:33:11.669Z,99.90
2023-02-04T09:35:38.406Z,99.90
2023-02-04T09:38:05.903Z,99.90
2023-02-04T09:40:36.685Z,99.90
2023-02-04T09:43:05.577Z,99.90
2023-02-04T09:45:35.518Z,99.90
2023-02-04T09:48:07.150Z,99.90
2023-02-04T09:50:35.287Z,99.90
2023-02-04T09:53:05.423Z,99.90
2023-02-04T09:55:38.739Z,99.90
2023-02-04T09:58:17.847Z,99.90
2023-02-04T10:00:46.695Z,99.90
2023-02-04T10:03:18.245Z,99.90
2023-02-04T10:05:47.065Z,99.90
2023-02-04T10:08:19.532Z,99.90
2023-02-04T10:10:48.993Z,99.90
2023-02-04T10:13:22.998Z,99.90
2023-02-04T10:15:50.832Z,99.90
2023-02-04T10:18:34.115Z,99.90
2023-02-04T10:21:17.726Z,99.90
2023-02-04T10:23:49.878Z,99.90
2023-02-04T10:26:17.531Z,99.90
2023-02-04T10:28:46.059Z,99.90
2023-02-04T10:31:28.098Z,99.90
2023-02-04T10:34:14.908Z,99.90
2023-02-04T10:36:45.194Z,99.90
2023-02-04T10:39:18.595Z,99.90
2023-02-04T10:41:57.350Z,99.90
2023-02-04T10:44:32.285Z,99.90
2023-02-04T10:47:18.716Z,99.90
2023-02-04T10:50:14.790Z,99.90
2023-02-04T10:52:45.976Z,99.90
2023-02-04T10:55:17.194Z,99.90
2023-02-04T10:57:46.604Z,99.90
2023-02-04T11:00:22.347Z,99.90
2023-02-04T11:02:58.339Z,99.90
2023-02-04T11:05:31.063Z,99.90
2023-02-04T11:07:58.339Z,99.90
2023-02-04T11:10:30.110Z,99.90
2023-02-04T11:12:56.919Z,99.90
2023-02-04T11:15:42.345Z,99.90
2023-02-04T11:18:12.941Z,99.90
2023-02-04T11:20:40.773Z,99.90
2023-02-04T11:23:34.769Z,99.90
2023-02-04T11:26:19.223Z,99.90
2023-02-04T11:29:08.185Z,99.90
2023-02-04T11:31:34.973Z,99.90
2023-02-04T11:34:09.781Z,99.90
2023-02-04T11:36:54.978Z,99.90
2023-02-04T11:39:21.850Z,99.90
2023-02-04T11:41:48.606Z,99.90
2023-02-04T11:44:17.529Z,99.90
2023-02-04T11:46:48.958Z,99.90
2023-02-04T11:49:20.035Z,99.90
2023-02-04T11:51:46.793Z,99.90
2023-02-04T11:54:16.299Z,99.90
2023-02-04T11:56:43.260Z,99.90
2023-02-04T11:59:12.322Z,99.90
2023-02-04T12:01:39.340Z,99.90
2023-02-04T12:04:19.915Z,99.90
2023-02-04T12:06:58.796Z,99.90
2023-02-04T12:09:29.787Z,99.90
2023-02-04T12:12:02.433Z,99.90
2023-02-04T12:14:41.744Z,99.90
2023-02-04T12:17:20.078Z,99.90
2023-02-04T12:19:46.981Z,99.90
2023-02-04T12:22:15.604Z,99.90
2023-02-04T12:24:43.846Z,99.90
2023-02-04T12:27:10.584Z,99.90
2023-02-04T12:29:37.321Z,99.90
2023-02-04T12:32:04.349Z,99.90
2023-02-04T12:34:31.120Z,99.90
2023-02-04T12:36:57.816Z,99.90
2023-02-04T12:39:24.633Z,99.90
2023-02-04T12:41:51.271Z,99.90
2023-02-04T12:44:17.969Z,99.90
2023-02-04T12:46:44.813Z,99.10
2023-02-04T12:49:13.092Z,99.90
2023-02-04T12:51:39.882Z,99.90
2023-02-04T12:54:06.543Z,99.90
2023-02-04T12:56:33.183Z,99.90
2023-02-04T12:58:59.834Z,98.30
2023-02-04T13:01:26.483Z,93.90
2023-02-04T13:03:53.120Z,97.70
2023-02-04T13:06:19.902Z,97.40
2023-02-04T13:08:46.574Z,93.50
2023-02-04T13:11:13.299Z,85.70
2023-02-04T13:13:40.638Z,83.70
2023-02-04T13:16:07.433Z,91.40
2023-02-04T13:18:34.129Z,91.00
2023-02-04T13:21:01.779Z,90.70
2023-02-04T13:23:28.419Z,90.60
2023-02-04T13:25:55.234Z,95.20
2023-02-04T13:28:21.895Z,80.70
2023-02-04T13:30:48.634Z,85.50
2023-02-04T13:33:16.656Z,90.40
2023-02-04T13:35:45.100Z,82.90
2023-02-04T13:38:11.816Z,74.20
2023-02-04T13:40:39.257Z,74.30
2023-02-04T13:43:06.025Z,77.10
2023-02-04T13:45:33.226Z,78.90
2023-02-04T13:48:00.218Z,47.00
2023-02-04T13:50:26.946Z,44.10
2023-02-04T13:52:55.204Z,48.50
2023-02-04T13:55:22.151Z,50.40
2023-02-04T13:57:48.884Z,66.10
2023-02-04T14:00:16.176Z,35.40
2023-02-04T14:02:42.870Z,31.90
2023-02-04T14:05:09.738Z,99.90
2023-02-04T14:07:36.488Z,99.90
2023-02-04T14:10:03.469Z,32.90
2023-02-04T14:12:30.200Z,33.60
2023-02-04T14:14:56.859Z,27.70
2023-02-04T14:17:23.564Z,27.90
2023-02-04T14:19:50.430Z,31.50
2023-02-04T14:22:17.268Z,44.20
2023-02-04T14:24:44.676Z,37.50
2023-02-04T14:27:11.546Z,40.00
2023-02-04T14:29:38.278Z,39.40
2023-02-04T14:32:05.138Z,31.30
2023-02-04T14:34:31.841Z,37.60
2023-02-04T14:36:58.501Z,41.00
2023-02-04T14:39:25.270Z,63.50
2023-02-04T14:41:52.079Z,67.00
2023-02-04T14:44:20.768Z,59.80
2023-02-04T14:46:48.918Z,75.20
2023-02-04T14:49:16.782Z,83.70
2023-02-04T14:51:44.020Z,87.40
2023-02-04T14:54:11.065Z,51.20
2023-02-04T14:56:37.990Z,56.30
2023-02-04T14:59:05.001Z,68.50
2023-02-04T15:01:31.774Z,61.50
2023-02-04T15:03:58.789Z,59.20
2023-02-04T15:06:25.691Z,65.80
2023-02-04T15:08:52.528Z,62.00
2023-02-04T15:11:19.304Z,80.30
2023-02-04T15:13:45.949Z,66.00
2023-02-04T15:16:14.403Z,51.90
2023-02-04T15:18:41.817Z,54.40
2023-02-04T15:21:08.815Z,77.10
2023-02-04T15:23:35.677Z,80.10
2023-02-04T15:26:02.692Z,78.00
2023-02-04T15:28:30.863Z,92.70
2023-02-04T15:30:58.129Z,99.90
2023-02-04T15:33:24.945Z,99.90
2023-02-04T15:35:51.664Z,99.90
2023-02-04T15:38:18.444Z,99.90
2023-02-04T15:40:45.121Z,99.90
2023-02-04T15:43:11.896Z,99.90
2023-02-04T15:45:41.376Z,99.90
2023-02-04T15:48:08.672Z,99.90
2023-02-04T15:50:35.745Z,99.90
2023-02-04T15:53:02.750Z,99.90
2023-02-04T15:55:29.929Z,99.90
2023-02-04T15:57:56.609Z,99.90
2023-02-04T16:00:24.127Z,99.90
2023-02-04T16:02:51.051Z,99.90
2023-02-04T16:05:17.932Z,99.90
2023-02-04T16:07:44.784Z,99.90
2023-02-04T16:10:11.549Z,99.90
2023-02-04T16:12:38.304Z,99.90
2023-02-04T16:15:05.385Z,99.90
2023-02-04T16:17:32.043Z,99.90
2023-02-04T16:19:58.809Z,99.90
2023-02-04T16:22:25.590Z,99.90
2023-02-04T16:24:52.873Z,99.90
2023-02-04T16:27:19.996Z,99.90
2023-02-04T16:29:46.796Z,99.90
2023-02-04T16:32:13.784Z,99.90
2023-02-04T16:34:40.589Z,99.90
2023-02-04T16:37:07.589Z,99.90
2023-02-04T16:39:34.391Z,99.90
2023-02-04T16:42:01.165Z,99.90
2023-02-04T16:44:27.868Z,99.90
2023-02-04T16:46:54.977Z,99.90
2023-02-04T16:49:21.788Z,99.90
2023-02-04T16:51:48.589Z,99.90
2023-02-04T16:54:15.265Z,99.90
2023-02-04T16:56:41.996Z,99.90
2023-02-04T16:59:08.642Z,99.90
2023-02-04T17:01:35.391Z,99.90
2023-02-04T17:04:02.169Z,99.90
2023-02-04T17:06:30.468Z,99.90
2023-02-04T17:08:57.233Z,99.90
2023-02-04T17:11:31.525Z,99.90
2023-02-04T17:14:01.466Z,99.90
2023-02-04T17:16:29.442Z,99.90
2023-02-04T17:18:56.436Z,99.90
2023-02-04T17:21:24.906Z,99.90
2023-02-04T17:23:51.868Z,99.90
2023-02-04T17:26:19.685Z,99.90
2023-02-04T17:28:46.539Z,99.90
2023-02-04T17:31:13.400Z,99.90
2023-02-04T17:33:40.200Z,99.90
2023-02-04T17:36:07.494Z,99.90
2023-02-04T17:38:34.217Z,99.90
2023-02-04T17:41:02.626Z,99.90
2023-02-04T17:43:29.393Z,99.90
2023-02-04T17:45:56.119Z,99.90
2023-02-04T17:48:22.778Z,99.90
2023-02-04T17:50:49.576Z,99.90
2023-02-04T17:53:16.327Z,99.90
2023-02-04T17:55:43.020Z,99.90
2023-02-04T17:58:20.793Z,99.90
2023-02-04T18:00:48.120Z,99.90
2023-02-04T18:03:19.322Z,99.90
2023-02-04T18:05:48.371Z,99.90
2023-02-04T18:08:19.459Z,99.90
2023-02-04T18:10:48.252Z,99.90
2023-02-04T18:13:17.298Z,99.90
2023-02-04T18:15:47.536Z,99.90
2023-02-04T18:18:37.949Z,99.90
2023-02-04T18:21:16.787Z,99.90
2023-02-04T18:23:45.867Z,99.90
2023-02-04T18:26:33.049Z,99.90
2023-02-04T18:29:00.836Z,99.90
2023-02-04T18:31:41.988Z,99.90
2023-02-04T18:34:20.965Z,99.90
2023-02-04T18:36:48.499Z,99.90
2023-02-04T18:39:19.181Z,99.90
2023-02-04T18:41:49.516Z,99.90
2023-02-04T18:44:31.143Z,99.90
2023-02-04T18:46:58.235Z,99.90
2023-02-04T18:49:26.269Z,99.90
2023-02-04T18:51:53.467Z,99.90
2023-02-04T18:54:40.337Z,99.90
2023-02-04T18:57:13.493Z,99.90
2023-02-04T18:59:41.364Z,99.90
2023-02-04T19:02:46.520Z,99.90
2023-02-04T19:05:26.286Z,99.90
2023-02-04T19:08:05.106Z,99.90
2023-02-04T19:10:35.835Z,99.90
2023-02-04T19:13:25.929Z,99.90
2023-02-04T19:16:06.798Z,99.90
2023-02-04T19:18:37.789Z,99.90
2023-02-04T19:21:22.404Z,99.90
2023-02-04T19:23:50.724Z,99.90
2023-02-04T19:26:32.398Z,99.90
2023-02-04T19:28:59.639Z,99.90
2023-02-04T19:31:36.706Z,99.90
2023-02-04T19:34:26.185Z,99.90
2023-02-04T19:36:55.080Z,99.90
2023-02-04T19:39:40.292Z,99.90
2023-02-04T19:42:24.741Z,99.90
2023-02-04T19:44:51.981Z,99.90
2023-02-04T19:47:32.621Z,99.90
2023-02-04T19:50:13.792Z,99.90
2023-02-04T19:52:43.542Z,99.90
2023-02-04T19:55:15.835Z,99.90
2023-02-04T19:57:48.760Z,99.90
2023-02-04T20:00:37.456Z,99.90
2023-02-04T20:03:41.949Z,99.90
2023-02-04T20:06:47.826Z,99.90
2023-02-04T20:09:18.337Z,99.90
2023-02-04T20:11:58.157Z,99.90
2023-02-04T20:14:46.203Z,99.90
2023-02-04T20:17:23.942Z,99.90
2023-02-04T20:19:51.195Z,99.90
2023-02-04T20:22:17.801Z,99.90
2023-02-04T20:24:54.044Z,99.90
2023-02-04T20:27:26.095Z,99.90
2023-02-04T20:30:00.570Z,99.90
2023-02-04T20:32:30.121Z,99.90
2023-02-04T20:35:13.574Z,99.90
2023-02-04T20:37:42.226Z,99.90
2023-02-04T20:40:22.973Z,99.90
2023-02-04T20:42:52.937Z,99.90
2023-02-04T20:45:46.312Z,99.90
2023-02-04T20:48:16.171Z,99.90
2023-02-04T20:50:53.735Z,99.90
2023-02-04T20:53:24.901Z,99.90
2023-02-04T20:55:53.325Z,99.90
2023-02-04T20:58:26.849Z,99.90
2023-02-04T21:00:55.832Z,99.90
2023-02-04T21:03:34.779Z,99.90
2023-02-04T21:06:03.079Z,99.90
2023-02-04T21:08:35.367Z,99.90
2023-02-04T21:11:02.842Z,99.90
2023-02-04T21:13:29.777Z,99.90
2023-02-04T21:15:57.087Z,99.90
2023-02-04T21:18:24.306Z,99.90
2023-02-04T21:20:51.169Z,99.90
2023-02-04T21:23:18.291Z,99.90
2023-02-04T21:25:45.651Z,99.90
2023-02-04T21:28:12.706Z,99.90
2023-02-04T21:30:39.476Z,99.90
2023-02-04T21:33:10.098Z,99.90
2023-02-04T21:35:38.015Z,99.90
2023-02-04T21:38:05.490Z,99.90
2023-02-04T21:40:34.004Z,99.90
2023-02-04T21:43:02.720Z,99.90
2023-02-04T21:45:29.391Z,99.90
2023-02-04T21:47:56.118Z,99.90
2023-02-04T21:50:23.202Z,99.90
2023-02-04T21:52:50.239Z,99.90
2023-02-04T21:55:19.401Z,99.90
2023-02-04T21:57:46.455Z,99.90
2023-02-04T22:00:13.998Z,99.90
2023-02-04T22:02:40.670Z,99.90
2023-02-04T22:05:08.386Z,99.90
2023-02-04T22:07:36.301Z,99.90
2023-02-04T22:10:05.519Z,99.90
2023-02-04T22:12:32.325Z,99.90
2023-02-04T22:14:59.203Z,99.90
2023-02-04T22:17:25.973Z,99.90
2023-02-04T22:19:52.596Z,99.90
2023-02-04T22:22:19.582Z,99.90
2023-02-04T22:24:46.240Z,99.90
2023-02-04T22:27:13.190Z,99.90
2023-02-04T22:29:39.851Z,99.90
2023-02-04T22:32:06.596Z,99.90
2023-02-04T22:34:33.373Z,99.90
2023-02-04T22:37:00.110Z,99.90
2023-02-04T22:39:26.761Z,99.90
2023-02-04T22:41:53.546Z,99.90
2023-02-04T22:44:20.267Z,99.90
2023-02-04T22:46:47.643Z,99.90
2023-02-04T22:49:14.536Z,99.90
2023-02-04T22:51:41.297Z,99.90
2023-02-04T22:54:08.186Z,99.90
2023-02-04T22:56:34.932Z,99.90
2023-02-04T22:59:01.716Z,99.90
2023-02-04T23:01:28.464Z,99.90
2023-02-04T23:03:55.131Z,99.90
2023-02-04T23:06:22.689Z,99.90
2023-02-04T23:08:49.972Z,99.90
2023-02-04T23:11:18.471Z,99.90
2023-02-04T23:13:45.922Z,99.90
2023-02-04T23:16:12.645Z,99.90
2023-02-04T23:18:39.411Z,99.90
2023-02-04T23:21:06.410Z,99.90
2023-02-04T23:23:33.618Z,99.90
2023-02-04T23:26:03.075Z,99.90
2023-02-04T23:28:30.994Z,99.90
2023-02-04T23:30:57.919Z,99.90
2023-02-04T23:33:24.959Z,99.90
2023-02-04T23:35:52.035Z,99.90
2023-02-04T23:38:18.707Z,99.90
2023-02-04T23:40:45.452Z,99.90
2023-02-04T23:43:12.314Z,99.90
2023-02-04T23:45:39.101Z,99.90
2023-02-04T23:48:06.649Z,99.90
2023-02-04T23:50:33.297Z,99.90
2023-02-04T23:53:00.038Z,99.90
2023-02-04T23:55:27.094Z,99.90
2023-02-04T23:57:53.821Z,99.90
